LIMP/PMF METAR and TAF weather

Enter ICAO airport designator
Station Type Date Time Source
LIMP METAR 2020/01/23 08:50 UTC NOAA

LIMP 230850Z VRB02KT 3000 BR NSC 01/01 Q1032


Station Type Date Time Source
LIMP Decoded METAR 2020/01/23 08:50 UTC NOAA

Parma, Italy (LIMP) 44-49-17N 010-17-41E
Jan 23, 2020 - 03:50 AM EST / 2020.01.23 0850 UTC
Wind: Variable at 2 MPH (2 KT):0
Visibility: 1 mile(s):0
Weather: mist
Temperature: 33 F (1 C)
Dew Point: 33 F (1 C)
Relative Humidity: 100%
Pressure (altimeter): 30.47 in. Hg (1032 hPa)
ob: LIMP 230850Z VRB02KT 3000 BR NSC 01/01 Q1032
cycle: 9

Station Type Date Time Source
LIMP TAF 2020/01/23 06:21 UTC NOAA

TAF LIMP 230500Z 2306/2406 VRB05KT CAVOK

Example: see airport list